Aeroporto :
LOGIN :

Iscrizione | Disclaimer

   EN    FR    IT 

 










Sommario :    VFR   VFR Marginale   IFR   IFR Intensivo   IFR Molto Intensivo
Visibilità : 
Base nubi : 
>= 8 km
>= 3000ft
5 / 8 km
1000 / 3000 ft
1500m / 5 km
500 / 1000 ft
800 / 1500m
200 / 500 ft
< 800m
< 200 ft
Simboli :   Temporali  Nebbia  Neve Forte  Precipitazioni Forti  Vento > 20 kt
SIGMETs :   Varie  Temporali  Ghiacco  Turbolenza  Onda orograficha  Ceneri Vulcaniche






- Altitudine del aeroporto : 616 ft
- Codice IATA : PUF


LFBP - Pau

ULTIMO METAR :
  • 210000Z AUTO 11003KT 9999 3800 NSC 05/04 Q1031 NOSIG

METARs OBSOLETI :
  • 202330Z AUTO 08003KT 9999 4500 NSC 05/04 Q1031 NOSIG
  • 202300Z AUTO 09002KT CAVOK 05/04 Q1031 NOSIG
  • 202230Z AUTO VRB02KT CAVOK 06/05 Q1031 NOSIG
  • 202200Z AUTO 19006KT CAVOK 08/07 Q1031 NOSIG
  • 202130Z AUTO 20005KT CAVOK 08/07 Q1031 NOSIG

TAF TAF LFBP
Valido dal 21 a 00 ore il 22 a 00 ore UTC


202300Z 2100/2124 25005KT CAVOK
BECMG 2100/2102 BKN017
BECMG 2103/2105 10005KT
PROB30
TEMPO 2103/2106 4000 -DZ BKN005
BECMG 2107/2109 BKN025
BECMG 2113/2115 02005KT CAVOK



MetMap, La meteo Aeronautica in un colpo d'occhio ! - Copyright ORBIFLY Dicembre 2007 - Disclaimer

ORBIFLY MET'MAP TEAM :

Programmazione e sviluppo : Alexandra Zaïnal
Concezione : Baudouin d'Aumeries
Aiuto per la programmazione : Marc-Olivier Méhu
Supporto tecnico e logistico : Manuel Goepfert
Aiuto per la traduzione : Arnaldo La Scala

Contatto : metmap@orbifly.com




FONTI E CREDITI :

   NOAA